Time,TemperatureF,DewpointF,PressureIn,WindDirection,WindDirectionDegrees,WindSpeedMPH,WindSpeedGustMPH,Humidity,HourlyPrecipIn,Conditions,Clouds,dailyrainin,SoftwareType,DateUTC
2013-01-22 00:10:00,1.2,-4.8,29.67,North,0,0.0,-999.0,75,-99.99,,,0.00,Acu-Link.com,2013-01-22 06:10:00,
2013-01-22 00:26:00,1.4,-4.7,29.67,NNW,337,0.0,-999.0,75,-99.99,,,0.00,Acu-Link.com,2013-01-22 06:26:00,
2013-01-22 00:41:00,1.4,-4.7,29.67,WSW,247,0.0,-999.0,75,-99.99,,,0.00,Acu-Link.com,2013-01-22 06:41:00,
2013-01-22 00:56:00,1.4,-4.4,29.67,West,270,0.0,-999.0,76,-99.99,,,0.00,Acu-Link.com,2013-01-22 06:56:00,
2013-01-22 01:11:00,2.1,-4.3,29.67,NNW,337,0.0,-999.0,74,-99.99,,,0.00,Acu-Link.com,2013-01-22 07:11:00,
2013-01-22 01:26:00,2.5,-4.1,29.68,NNW,337,0.0,-999.0,73,-99.99,,,0.00,Acu-Link.com,2013-01-22 07:26:00,
2013-01-22 01:41:00,2.8,-4.4,29.68,NNW,337,0.0,-999.0,71,-99.99,,,0.00,Acu-Link.com,2013-01-22 07:41:00,
2013-01-22 01:56:00,3.4,-5.4,29.68,NNE,22,0.0,-999.0,66,-99.99,,,0.00,Acu-Link.com,2013-01-22 07:56:00,
2013-01-22 02:11:00,3.6,-5.8,29.69,WNW,292,0.0,-999.0,64,-99.99,,,0.00,Acu-Link.com,2013-01-22 08:11:00,
2013-01-22 02:26:00,3.4,-6.7,29.69,North,0,0.0,-999.0,62,-99.99,,,0.00,Acu-Link.com,2013-01-22 08:26:00,
2013-01-22 02:41:00,3.2,-6.5,29.69,NE,45,0.0,-999.0,63,-99.99,,,0.00,Acu-Link.com,2013-01-22 08:41:00,
2013-01-22 02:57:00,2.8,-6.6,29.69,NNE,22,0.0,-999.0,64,-99.99,,,0.00,Acu-Link.com,2013-01-22 08:57:00,
2013-01-22 03:14:00,2.8,-6.6,29.69,North,0,0.0,-999.0,64,-99.99,,,0.00,Acu-Link.com,2013-01-22 09:14:00,
2013-01-22 03:29:00,2.8,-6.6,29.68,NNE,22,0.0,-999.0,64,-99.99,,,0.00,Acu-Link.com,2013-01-22 09:29:00,
2013-01-22 03:44:00,2.7,-6.4,29.68,NNE,22,0.0,-999.0,65,-99.99,,,0.00,Acu-Link.com,2013-01-22 09:44:00,
2013-01-22 04:00:00,2.1,-6.6,29.67,North,0,0.0,-999.0,66,-99.99,,,0.00,Acu-Link.com,2013-01-22 10:00:00,
2013-01-22 04:15:00,1.6,-6.8,29.68,NE,45,0.0,-999.0,67,-99.99,,,0.00,Acu-Link.com,2013-01-22 10:15:00,
2013-01-22 04:30:00,1.9,-6.2,29.68,NW,315,0.0,-999.0,68,-99.99,,,0.00,Acu-Link.com,2013-01-22 10:30:00,
2013-01-22 04:45:00,2.3,-5.8,29.68,NE,45,0.0,-999.0,68,-99.99,,,0.00,Acu-Link.com,2013-01-22 10:45:00,
2013-01-22 05:00:00,2.5,-5.9,29.68,South,180,0.0,-999.0,67,-99.99,,,0.00,Acu-Link.com,2013-01-22 11:00:00,
2013-01-22 05:15:00,2.5,-6.2,29.67,NW,315,0.0,-999.0,66,-99.99,,,0.00,Acu-Link.com,2013-01-22 11:15:00,
2013-01-22 05:30:00,2.5,-6.2,29.68,NNW,337,0.0,-999.0,66,-99.99,,,0.00,Acu-Link.com,2013-01-22 11:30:00,
2013-01-22 05:46:00,2.5,-6.5,29.68,NNE,22,0.0,-999.0,65,-99.99,,,0.00,Acu-Link.com,2013-01-22 11:46:00,
2013-01-22 06:01:00,1.8,-6.9,29.69,North,0,0.0,-999.0,66,-99.99,,,0.00,Acu-Link.com,2013-01-22 12:01:00,
2013-01-22 06:46:00,2.3,-6.4,29.70,NNE,22,0.0,-999.0,66,-99.99,,,0.00,Acu-Link.com,2013-01-22 12:46:00,
2013-01-22 07:31:00,3.4,-6.7,29.71,NW,315,0.0,-999.0,62,-99.99,,,0.00,Acu-Link.com,2013-01-22 13:31:00,
2013-01-22 07:46:00,3.7,-6.4,29.71,WNW,292,0.0,-999.0,62,-99.99,,,0.00,Acu-Link.com,2013-01-22 13:46:00,
2013-01-22 08:02:00,4.1,-6.3,29.71,WSW,247,0.0,-999.0,61,-99.99,,,0.00,Acu-Link.com,2013-01-22 14:02:00,
2013-01-22 08:17:00,4.5,-5.9,29.72,West,270,0.0,-999.0,61,-99.99,,,0.00,Acu-Link.com,2013-01-22 14:17:00,
2013-01-22 08:47:00,5.7,-5.1,29.72,North,0,0.0,-999.0,60,-99.99,,,0.00,Acu-Link.com,2013-01-22 14:47:00,
2013-01-22 09:02:00,6.4,-4.5,29.73,NNE,22,0.0,-999.0,60,-99.99,,,0.00,Acu-Link.com,2013-01-22 15:02:00,
2013-01-22 09:17:00,7.7,-4.0,29.72,NW,315,0.0,-999.0,58,-99.99,,,0.00,Acu-Link.com,2013-01-22 15:17:00,
2013-01-22 09:32:00,8.2,-3.8,29.72,NNW,337,0.0,-999.0,57,-99.99,,,0.00,Acu-Link.com,2013-01-22 15:32:00,
2013-01-22 09:47:00,9.5,-3.0,29.73,North,0,0.0,-999.0,56,-99.99,,,0.00,Acu-Link.com,2013-01-22 15:47:00,
2013-01-22 10:02:00,9.0,-3.8,29.72,South,180,0.0,-999.0,55,-99.99,,,0.00,Acu-Link.com,2013-01-22 16:02:00,
2013-01-22 10:18:00,9.9,-3.0,29.73,SW,225,0.0,-999.0,55,-99.99,,,0.00,Acu-Link.com,2013-01-22 16:18:00,
2013-01-22 10:33:00,10.2,-3.1,29.73,ESE,112,0.0,-999.0,54,-99.99,,,0.00,Acu-Link.com,2013-01-22 16:33:00,
2013-01-22 10:48:00,12.0,-1.4,29.73,NNW,337,0.0,-999.0,54,-99.99,,,0.00,Acu-Link.com,2013-01-22 16:48:00,
2013-01-22 11:03:00,11.8,-2.4,29.73,NNW,337,0.0,-999.0,52,-99.99,,,0.00,Acu-Link.com,2013-01-22 17:03:00,
2013-01-22 11:18:00,13.3,-1.0,29.73,NNW,337,0.0,-999.0,52,-99.99,,,0.00,Acu-Link.com,2013-01-22 17:18:00,
2013-01-22 11:33:00,14.0,-0.8,29.72,South,180,0.0,-999.0,51,-99.99,,,0.00,Acu-Link.com,2013-01-22 17:33:00,
2013-01-22 11:48:00,15.6,0.3,29.71,South,180,0.0,-999.0,50,-99.99,,,0.00,Acu-Link.com,2013-01-22 17:48:00,
2013-01-22 12:03:00,14.5,-0.3,29.71,West,270,0.0,-999.0,51,-99.99,,,0.00,Acu-Link.com,2013-01-22 18:03:00,
2013-01-22 12:34:00,15.3,-0.8,29.69,SSW,202,0.0,-999.0,48,-99.99,,,0.00,Acu-Link.com,2013-01-22 18:34:00,
2013-01-22 12:49:00,15.4,-0.3,29.68,NNW,337,0.0,-999.0,49,-99.99,,,0.00,Acu-Link.com,2013-01-22 18:49:00,
2013-01-22 13:04:00,16.2,-0.4,29.67,SW,225,0.0,-999.0,47,-99.99,,,0.00,Acu-Link.com,2013-01-22 19:04:00,
2013-01-22 13:19:00,15.8,-0.4,29.67,West,270,0.0,-999.0,48,-99.99,,,0.00,Acu-Link.com,2013-01-22 19:19:00,
2013-01-22 13:34:00,15.6,-0.6,29.67,WNW,292,0.0,-999.0,48,-99.99,,,0.00,Acu-Link.com,2013-01-22 19:34:00,
2013-01-22 13:49:00,16.3,-0.8,29.66,SSW,202,0.0,-999.0,46,-99.99,,,0.00,Acu-Link.com,2013-01-22 19:49:00,
2013-01-22 14:04:00,16.7,-0.4,29.65,SSW,202,0.0,-999.0,46,-99.99,,,0.00,Acu-Link.com,2013-01-22 20:04:00,
2013-01-22 14:25:00,17.1,-0.1,29.65,West,270,0.0,-999.0,46,-99.99,,,0.00,Acu-Link.com,2013-01-22 20:25:00,
2013-01-22 14:41:00,18.3,0.1,29.64,West,270,0.0,-999.0,44,-99.99,,,0.00,Acu-Link.com,2013-01-22 20:41:00,
2013-01-22 14:56:00,18.9,0.1,29.65,NW,315,0.0,-999.0,43,-99.99,,,0.00,Acu-Link.com,2013-01-22 20:56:00,
2013-01-22 16:26:00,17.6,-0.6,29.63,North,0,0.0,-999.0,44,-99.99,,,0.00,Acu-Link.com,2013-01-22 22:26:00,
2013-01-22 16:41:00,17.2,-0.4,29.62,NE,45,0.0,-999.0,45,-99.99,,,0.00,Acu-Link.com,2013-01-22 22:41:00,
2013-01-22 16:57:00,16.3,-0.8,29.62,WSW,247,0.0,-999.0,46,-99.99,,,0.00,Acu-Link.com,2013-01-22 22:57:00,
2013-01-22 17:12:00,15.6,-1.0,29.62,SW,225,0.0,-999.0,47,-99.99,,,0.00,Acu-Link.com,2013-01-22 23:12:00,
2013-01-22 17:27:00,14.7,-0.5,29.63,SSE,157,0.0,-999.0,50,-99.99,,,0.00,Acu-Link.com,2013-01-22 23:27:00,
2013-01-22 17:42:00,14.5,0.5,29.63,SSW,202,0.0,-999.0,53,-99.99,,,0.00,Acu-Link.com,2013-01-22 23:42:00,
2013-01-22 17:57:00,14.4,0.0,29.63,South,180,0.0,-999.0,52,-99.99,,,0.00,Acu-Link.com,2013-01-22 23:57:00,
2013-01-22 18:12:00,14.5,0.5,29.63,South,180,0.0,-999.0,53,-99.99,,,0.00,Acu-Link.com,2013-01-23 00:12:00,
2013-01-22 18:27:00,14.5,0.5,29.64,South,180,0.0,-999.0,53,-99.99,,,0.00,Acu-Link.com,2013-01-23 00:27:00,
2013-01-22 18:42:00,14.5,0.5,29.64,SE,135,0.0,-999.0,53,-99.99,,,0.00,Acu-Link.com,2013-01-23 00:42:00,
2013-01-22 18:57:00,14.5,1.7,29.63,SSE,157,0.0,-999.0,56,-99.99,,,0.00,Acu-Link.com,2013-01-23 00:57:00,
2013-01-22 19:13:00,14.7,0.7,29.63,WNW,292,0.0,-999.0,53,-99.99,,,0.00,Acu-Link.com,2013-01-23 01:13:00,
2013-01-22 19:28:00,14.7,1.1,29.63,SE,135,0.0,-999.0,54,-99.99,,,0.00,Acu-Link.com,2013-01-23 01:28:00,
2013-01-22 19:43:00,14.7,1.5,29.63,SSE,157,0.0,-999.0,55,-99.99,,,0.00,Acu-Link.com,2013-01-23 01:43:00,
2013-01-22 19:58:00,14.7,1.5,29.64,South,180,0.0,-999.0,55,-99.99,,,0.00,Acu-Link.com,2013-01-23 01:58:00,
2013-01-22 20:13:00,14.7,1.5,29.64,South,180,0.0,-999.0,55,-99.99,,,0.00,Acu-Link.com,2013-01-23 02:13:00,
2013-01-22 20:43:00,14.9,2.5,29.64,SSW,202,0.0,-999.0,57,-99.99,,,0.00,Acu-Link.com,2013-01-23 02:43:00,
2013-01-22 20:58:00,14.9,2.8,29.64,SSW,202,0.0,-999.0,58,-99.99,,,0.00,Acu-Link.com,2013-01-23 02:58:00,
2013-01-22 21:13:00,14.7,1.9,29.63,ESE,112,0.0,-999.0,56,-99.99,,,0.00,Acu-Link.com,2013-01-23 03:13:00,
2013-01-22 21:28:00,14.7,1.9,29.62,South,180,0.0,-999.0,56,-99.99,,,0.00,Acu-Link.com,2013-01-23 03:28:00,
2013-01-22 21:44:00,14.7,1.9,29.62,SSW,202,0.0,-999.0,56,-99.99,,,0.00,Acu-Link.com,2013-01-23 03:44:00,
2013-01-22 21:59:00,14.7,2.6,29.62,SSW,202,0.0,-999.0,58,-99.99,,,0.00,Acu-Link.com,2013-01-23 03:59:00,
2013-01-22 22:14:00,14.7,3.0,29.62,South,180,0.0,-999.0,59,-99.99,,,0.00,Acu-Link.com,2013-01-23 04:14:00,
2013-01-22 22:29:00,14.7,3.0,29.62,South,180,0.0,-999.0,59,-99.99,,,0.00,Acu-Link.com,2013-01-23 04:29:00,
2013-01-22 22:44:00,14.0,2.7,29.61,SSW,202,0.0,-999.0,60,-99.99,,,0.00,Acu-Link.com,2013-01-23 04:44:00,
2013-01-22 22:59:00,12.9,2.4,29.61,SSW,202,0.0,-999.0,62,-99.99,,,0.00,Acu-Link.com,2013-01-23 04:59:00,
2013-01-22 23:14:00,12.2,2.4,29.60,SW,225,0.0,-999.0,64,-99.99,,,0.00,Acu-Link.com,2013-01-23 05:14:00,
2013-01-22 23:29:00,12.6,3.1,29.61,South,180,0.0,-999.0,65,-99.99,,,0.00,Acu-Link.com,2013-01-23 05:29:00,
2013-01-22 23:44:00,13.8,3.9,29.61,South,180,0.0,-999.0,64,-99.99,,,0.00,Acu-Link.com,2013-01-23 05:44:00,